NWS Home NWS Lubbock West Texas Mesonet Three hour changes as of 0321 AM, Thu Feb 23, 2017

Latest   N   C   S   Daily Sum   3hrΔ   24hrΔ   Soil Data 
Site Map   24hr Precip   72hr Precip   Google Plot


Station Time of Last Temp Now Temp 3h ago Delta-T Dewpoint Now Dewpoint 3hr ago Delta-Td 3hr Press Change (mB)
Reese Center  03:15 AM 50.1 57.7 -7.7 28.3 24.8 3.6 -1.4
Abernathy  03:15 AM 43.8 54.6 -10.7 31.1 29.2 1.9 -1.2
Plainview  03:15 AM 44.7 58.6 -13.9 31.8 28.6 3.1 -0.8
Tahoka  03:15 AM 48.8 53.8 -5 29.7 30 -0.3 -1.4
Slaton  03:15 AM 55.3 61 -5.7 27.6 29.6 -2 -1.5
Levelland  03:15 AM 55 57.8 -2.8 26.2 25.4 0.8 -1.4
Roaring Springs  03:15 AM 57.6 62.9 -5.3 32.6 32.5 0.1 -1.5
Floydada  03:15 AM 47.5 57.6 -10.1 29.3 26.8 2.4 -1.3
Ralls  03:15 AM 47.9 51.3 -3.4 31.3 32.8 -1.5 -1.2
Brownfield  03:15 AM 54.3 56.2 -1.9 27.1 25.7 1.4 -1.5
Muleshoe  03:15 AM 39.4 48.1 -8.8 31.4 30.8 0.6 -1.4
Morton  03:15 AM 56.5 57.6 -1.1 27.6 25.9 1.7 -1.5
O'Donnell  03:15 AM 47.6 53.3 -5.7 31.2 31.5 -0.3 -1.7
Seagraves  03:15 AM 49.6 50.4 -0.8 27.7 26 1.7 -1.7
Amherst  03:15 AM 51.9 53.5 -1.7 29.8 29.1 0.7 -1.5
Plains  03:15 AM 50.6 48.1 2.5 26.9 27.5 -0.7 -1.8
Lamesa  03:15 AM 46.1 48.6 -2.5 34.3 35.2 -1 -1.7
Hart  03:15 AM 48.2 43.4 4.7 33.7 33.6 0.1 -1.3
Friona  03:15 AM 38.6 40.3 -1.7 32.7 31.7 1 -1.5
Dimmitt  03:15 AM 44.3 47 -2.7 33.2 34.2 -1 -1.6
Tulia  03:15 AM 44.9 45 -0.1 35.2 37.1 -1.9 -1.3
Silverton  03:15 AM 44.1 46.7 -2.5 30 32.4 -2.4 -1.3
Post  03:15 AM 59.5 67.5 -8 28.7 28 0.7 -1.6
Seminole  03:15 AM 51.5 53.2 -1.8 26.7 26.2 0.5 -1.8
Gail  03:15 AM 55.1 58.6 -3.5 32.1 33.6 -1.5 -1.5
White River Lake  03:15 AM 58.4 62.4 -4 27.7 29.1 -1.5 -1.5
Graham  03:15 AM 56.9 64.5 -7.7 28.8 28.3 0.5 -1.8
Sundown  03:15 AM 50.4 48.3 2 27.7 27.3 0.4 -1.5
Anton  03:15 AM 46.9 61.1 -14.1 29.7 28.1 1.5 -1.2
Fluvanna  03:15 AM 56.7 57.4 -0.7 30.5 32.1 -1.6 -1.5
Spur  03:15 AM 51 58.4 -7.4 33.1 33.1 0 -1.3
Northwest Lubbock  03:15 AM 53.5 60.2 -6.7 27.8 24.9 2.9 -1.2
Guthrie  03:15 AM 59.1 61.7 -2.6 33.1 34.1 -1 -1.4
Clarendon  03:15 AM 47.9 53.8 -5.9 33.6 33.8 -0.2 -1.3
Paducah  03:00 AM 66 64.2 1.8 31.1 34.1 -3 -1.3
Snyder  03:15 AM 52.8 56.9 -4.1 36.3 38 -1.7 -1
Memphis  03:15 AM 54.8 57.3 -2.4 35.7 35.7 0 -1.1
Jayton  03:15 AM 57.8 61.2 -3.4 33.2 33.3 -0.2 -1
Pampa  03:15 AM 55.7 57.2 -1.5 29.3 26.6 2.7 -1.5
Aspermont  03:15 AM 63.5 63.2 0.3 33.4 37.6 -4.1 -1.3
Hereford  03:15 AM 40.3 44.4 -4.1 32.5 32.4 0 -1.3
Goodlett  03:15 AM 54.7 59.5 -4.9 38.1 41.8 -3.7 -1.3
McLean  03:15 AM 48.6 57.2 -8.6 31.1 29.2 1.9 -1.4
Denver City  03:15 AM 49.4 54.5 -5.1 25.6 23.8 1.8 -1.9
Lake Alan Henry  03:15 AM 60.5 62.7 -2.2 30.3 31.3 -1 -1.5
Wolfforth  03:15 AM 48.5 46.3 2.2 28 26.5 1.5 -1.5
Andrews  03:15 AM 57 61 -4 27.7 24.7 3 -1.7
Turkey  03:15 AM 55.1 58.7 -3.5 31.7 38.2 -6.5 -1.4
Childress  03:15 AM 62.2 62.4 -0.2 31.7 36.9 -5.1 -1.1
Tatum  03:15 AM 44.3 51.9 -7.6 28.3 26.7 1.5 -1.6
Northfield  03:15 AM 51.3 58.8 -7.5 37 39.1 -2 -1.3
Dora  03:15 AM 52.6 55.2 -2.6 27.9 27.3 0.6 -1.4
Northwest San Angelo  03:15 AM 48.8 48.1 0.7 35.8 38.7 -2.9 -1.5
Saint Lawrence  03:15 AM 50.7 59.6 -9 34.4 33.9 0.5 -1.6
Haskell  03:15 AM 51.2 56.5 -5.4 40.1 41.5 -1.4 -1.2
Wall  03:15 AM 54.7 54.5 0.3 38.4 38.4 0 -1.7
Seymour  03:15 AM 53.5 59.1 -5.5 44.7 46 -1.2 -1.1
Knox City  03:15 AM 50.9 53.2 -2.3 39.4 41.6 -2.2 -1.2
Guadalupe Mtns Park  03:15 AM 62.3 64.9 -2.6 23.7 21.2 2.6 -1.2
Caprock Canyons   03:15 AM 55.4 59.1 -3.7 29.8 35.1 -5.3 -1.4
Odell  03:15 AM 57.2 64.1 -6.9 42.2 44.4 -2.2 -0.8
Coyanosa  03:15 AM 53.1 63 -9.9 18.6 22.6 -4 -1.1
Big Lake  03:15 AM 58.2 59.4 -1.3 34.5 34.6 -0.1 -1.7
Junction  03:15 AM 41.1 49 -7.9 40.2 45 -4.8 -1.6
Hobbs  03:15 AM 48.5 53.4 -4.9 24.9 23.6 1.4 -1.9
Canadian  03:15 AM 52.7 61.2 -8.5 30.5 30.3 0.2 -1.3
Palo Duro Canyon State Park Rim  03:15 AM 49.2 52.7 -3.5 33.1 33.4 -0.3 -1.4
Bootleg  03:15 AM 45.5 44.6 1 32.5 32.3 0.2 -1.7
Sterling City  03:15 AM 64.4 66.9 -2.5 33.6 32.5 1.1 -1.8
Mertzon  03:15 AM 48.1 51.1 -3.1 36.6 38.4 -1.7 -1.6
Persimmon Gap  03:15 AM 57.1 65 -7.9 28.9 27.1 1.8 -1
Weinert  03:15 AM 56.7 59.3 -2.5 41.1 42.7 -1.7 -1.4
Claude 12 southwest  03:15 AM 52.8 60 -7.1 32 31.6 0.4 -1.4
Amarillo 7 south southeast  03:15 AM 40.7 44.3 -3.6 32.6 31.9 0.7 -1.4
Umbarger  03:15 AM 41 46.5 -5.6 33.6 34.2 -0.6 -1.5
Lomax  03:15 AM 47.8 54.3 -6.5 32.5 34 -1.5 -1.1
Amarillo 9 North Northeast  03:15 AM 43.9 46.1 -2.3 33 32.4 0.6 -1.2
Aiken 3 West Southwest  03:15 AM 41.3 47.4 -6.1 29.8 31.7 -1.8 -1.2
Sweetwater  03:15 AM 59.1 61.2 -2.1 35.2 35.1 0.1 -1.3
Dozier  03:15 AM 59.1 53.6 5.6 30.8 34.5 -3.6 -1.6
Amarillo 15 North Northwest  03:15 AM 47.9 54.2 -6.3 32.9 32.1 0.8 -1.3
Menard  03:15 AM 42.9 48.2 -5.4 40.1 41.5 -1.3 -1.6
Tarzan  03:15 AM 53.1 55.5 -2.4 33.2 35.3 -2 -1.4
Goodnight  03:10 AM 46.9 50.3 -3.3 34.6 34.3 0.3 -1.1
Boys Ranch   03:15 AM 39.6 46.2 -6.6 29.7 27.5 2.2 -1.5
Fort McKavett  03:15 AM 47.4 52.6 -5.1 39.9 40.8 -0.9 -1.9
Fort Chadbourne  03:15 AM 49.4 51.1 -1.6 39.4 46.9 -7.5 -1.6
Palo Duro Canyon State Park Floor  03:15 AM 48.5 50.9 -2.4 35 35.1 -0.1 -1.2
Fort Lancaster  03:15 AM 47.1 60.1 -13 38.6 38.4 0.2 -1.5
Dell City 1N  03:15 AM 43.7 49.7 -6 25.7 28.2 -2.5 -1.5
Clyde  03:15 AM 65.4 64.7 0.7 36.4 38.9 -2.6 -1.8
Snyder SSW  03:15 AM 55.5 59 -3.5 34.4 37.9 -3.5 -1.1
Panhandle  03:15 AM 40.8 45.7 -5 31.2 33 -1.8 -1.4
Vigo Park  03:15 AM 41.4 45.7 -4.4 32.6 34.5 -2 -1.4
Welch  03:15 AM 46.9 53.6 -6.7 31.1 29.9 1.2 -1.5
Throckmorton  03:15 AM 59.3 63.6 -4.2 41.6 43.3 -1.7 -1.4
Sierra Blanca  03:15 AM 66.2 68.5 -2.3 23.2 21.7 1.5 -1
Fort Lewis CO  03:15 AM 32.9 34.3 -1.4 21.8 14.9 6.8 -2.4
New Home  03:15 AM 46.3 50.8 -4.5 29.1 30.9 -1.8 -1.6
McCamey  03:15 AM 59.8 62.3 -2.5 36 33.8 2.1 -1.6
Stamford  03:10 AM 53.4 55.9 -2.5 40.4 43.9 -3.4 -1.4
Crowell  03:15 AM 58.7 58.7 0 38.2 43 -4.8 -1.2
Olton  03:15 AM 38.2 46.5 -8.3 30.1 30.6 -0.5 -1.3

West Texas Mesonet Home   Site Map/Menu  NWS Lubbock Soil Data  Daily Summary Page  24hr Precip  72hr Precip  Google Plot